createdAt,value
2022-09-20T00:03:20.591Z,1.5
2022-09-20T00:05:02.178Z,1.6
2022-09-20T00:10:02.782Z,1.4
2022-09-20T00:15:03.515Z,1.4
2022-09-20T00:20:04.210Z,1.7
2022-09-20T00:25:05.000Z,1.2
2022-09-20T00:30:05.664Z,1.5
2022-09-20T00:35:06.370Z,1.7
2022-09-20T00:40:07.226Z,1.4
2022-09-20T00:45:07.931Z,1.5
2022-09-20T00:50:08.590Z,1.3
2022-09-20T00:55:10.735Z,1.6
2022-09-20T01:00:09.850Z,1.6
2022-09-20T01:05:10.612Z,1.4
2022-09-20T01:10:11.379Z,1.6
2022-09-20T01:15:11.997Z,1.4
2022-09-20T01:20:12.702Z,1.5
2022-09-20T01:25:14.932Z,1.4
2022-09-20T01:30:14.051Z,1.5
2022-09-20T01:35:14.791Z,1.4
2022-09-20T01:40:15.630Z,1.4
2022-09-20T01:45:16.422Z,1.3
2022-09-20T01:50:17.006Z,1.4
2022-09-20T01:55:17.761Z,1.2
2022-09-20T02:00:18.411Z,1.3
2022-09-20T02:05:19.105Z,1.2
2022-09-20T02:10:19.888Z,1.4
2022-09-20T02:15:20.614Z,1.3
2022-09-20T02:20:21.300Z,1.3
2022-09-20T02:25:22.119Z,1.6
2022-09-20T02:30:22.822Z,1.1
2022-09-20T02:35:23.440Z,1.4
2022-09-20T02:40:24.928Z,1.2
2022-09-20T02:45:24.851Z,1.2
2022-09-20T02:50:25.516Z,1.1
2022-09-20T02:55:26.222Z,1.1
2022-09-20T03:00:26.923Z,1.1
2022-09-20T03:05:27.693Z,1.1
2022-09-20T03:10:28.522Z,1.3
2022-09-20T03:15:29.172Z,1.0
2022-09-20T03:20:29.901Z,1.2
2022-09-20T03:25:30.707Z,1.3
2022-09-20T03:30:31.375Z,1.2
2022-09-20T03:35:32.141Z,1.0
2022-09-20T03:40:32.945Z,1.0
2022-09-20T03:45:33.568Z,1.2
2022-09-20T03:50:35.243Z,1.4
2022-09-20T03:55:42.201Z,1.2
2022-09-20T04:00:35.660Z,1.1
2022-09-20T04:05:36.461Z,1.0
2022-09-20T04:10:37.119Z,1.4
2022-09-20T04:15:37.811Z,1.2
2022-09-20T04:20:45.781Z,1.0
2022-09-20T04:25:43.653Z,1.8
2022-09-20T04:30:40.241Z,1.3
2022-09-20T04:35:40.711Z,1.4
2022-09-20T04:40:42.444Z,1.1
2022-09-20T04:45:42.246Z,1.2
2022-09-20T04:50:42.830Z,1.2
2022-09-20T04:55:43.570Z,1.3
2022-09-20T05:00:44.387Z,1.5
2022-09-20T05:05:44.973Z,1.2
2022-09-20T05:10:45.651Z,2.0
2022-09-20T05:15:46.366Z,1.3
2022-09-20T05:20:47.204Z,1.4
2022-09-20T05:25:47.799Z,1.3
2022-09-20T05:30:49.181Z,1.4
2022-09-20T05:35:49.247Z,1.3
2022-09-20T05:40:49.908Z,1.2
2022-09-20T05:45:50.688Z,1.4
2022-09-20T05:50:53.855Z,1.3
2022-09-20T05:55:52.059Z,1.2
2022-09-20T06:00:52.947Z,1.2
2022-09-20T06:05:53.607Z,1.2
2022-09-20T06:10:54.222Z,1.6
2022-09-20T06:15:54.891Z,1.2
2022-09-20T06:20:56.506Z,1.1
2022-09-20T06:25:56.387Z,1.2
2022-09-20T06:30:57.127Z,1.3
2022-09-20T06:35:59.231Z,1.3
2022-09-20T06:40:58.474Z,1.2
2022-09-20T06:45:59.315Z,1.5
2022-09-20T06:50:59.908Z,1.4
2022-09-20T06:56:00.598Z,1.4
2022-09-20T07:01:01.304Z,2.0
2022-09-20T07:06:02.133Z,1.5
2022-09-20T07:11:02.693Z,1.2
2022-09-20T07:16:03.533Z,2.7
2022-09-20T07:21:04.051Z,1.1
2022-09-20T07:26:04.851Z,1.6
2022-09-20T07:31:05.516Z,1.5
2022-09-20T07:36:06.301Z,1.3
2022-09-20T07:41:06.920Z,1.4
2022-09-20T07:46:07.684Z,1.2
2022-09-20T07:51:09.075Z,1.2
2022-09-20T07:56:09.013Z,1.6
2022-09-20T08:01:09.862Z,1.0
2022-09-20T08:06:10.374Z,1.4
2022-09-20T08:11:11.250Z,1.3
2022-09-20T08:16:12.044Z,1.5
2022-09-20T08:21:12.527Z,1.3
2022-09-20T08:26:13.159Z,1.4
2022-09-20T08:31:14.107Z,1.2
2022-09-20T08:36:14.602Z,1.3
2022-09-20T08:41:15.323Z,1.4
2022-09-20T08:46:16.206Z,1.7
2022-09-20T08:51:22.753Z,1.3
2022-09-20T08:56:17.512Z,1.6
2022-09-20T09:01:18.274Z,1.2
2022-09-20T09:06:19.016Z,1.8
2022-09-20T09:11:19.756Z,1.1
2022-09-20T09:16:25.752Z,1.1
2022-09-20T09:21:21.151Z,1.4
2022-09-20T09:26:21.960Z,1.1
2022-09-20T09:31:22.628Z,1.1
2022-09-20T09:36:23.275Z,1.3
2022-09-20T09:41:24.042Z,1.3
2022-09-20T09:46:24.855Z,1.3
2022-09-20T09:51:25.740Z,1.3
2022-09-20T09:56:26.323Z,1.3
2022-09-20T10:01:31.210Z,1.4
2022-09-20T10:06:27.868Z,1.4
2022-09-20T10:11:28.520Z,1.2
2022-09-20T10:16:29.298Z,1.2
2022-09-20T10:21:29.899Z,1.5
2022-09-20T10:26:30.767Z,1.2
2022-09-20T10:31:31.552Z,1.6
2022-09-20T10:36:32.153Z,1.2
2022-09-20T10:41:32.985Z,1.4
2022-09-20T10:46:34.089Z,1.1
2022-09-20T10:51:35.182Z,0.9
2022-09-20T10:56:35.203Z,1.4
2022-09-20T11:01:36.034Z,0.9
2022-09-20T11:06:36.661Z,1.2
2022-09-20T11:11:37.437Z,1.0
2022-09-20T11:16:38.230Z,1.0
2022-09-20T11:21:39.559Z,1.0
2022-09-20T11:26:39.546Z,1.1
2022-09-20T11:31:40.335Z,1.1
2022-09-20T11:36:40.962Z,0.9
2022-09-20T11:41:41.823Z,1.0
2022-09-20T11:46:42.503Z,0.9
2022-09-20T11:51:43.173Z,0.9
2022-09-20T11:56:47.017Z,0.8
2022-09-20T12:01:44.672Z,0.9
2022-09-20T12:06:47.026Z,0.8
2022-09-20T12:11:46.246Z,0.9
2022-09-20T12:16:47.103Z,0.8
2022-09-20T12:21:49.438Z,0.9
2022-09-20T12:26:49.645Z,0.9
2022-09-20T12:31:49.037Z,0.8
2022-09-20T12:36:49.681Z,0.9
2022-09-20T12:41:50.603Z,0.9
2022-09-20T12:46:51.243Z,0.8
2022-09-20T12:51:52.072Z,1.3
2022-09-20T12:56:54.372Z,1.0
2022-09-20T13:01:53.582Z,0.6
2022-09-20T13:06:54.258Z,0.8
2022-09-20T13:11:55.145Z,1.2
2022-09-20T13:16:55.901Z,0.9
2022-09-20T13:21:56.558Z,0.9
2022-09-20T13:26:57.540Z,0.9
2022-09-20T13:31:58.083Z,0.9
2022-09-20T13:36:58.816Z,0.9
2022-09-20T13:41:59.712Z,0.7
2022-09-20T13:47:00.344Z,1.0
2022-09-20T13:52:01.064Z,0.9
2022-09-20T13:57:01.911Z,1.0
2022-09-20T14:02:02.685Z,0.8
2022-09-20T14:07:03.272Z,1.0
2022-09-20T14:12:04.858Z,0.9
2022-09-20T14:17:04.870Z,0.9
2022-09-20T14:22:05.541Z,0.7
2022-09-20T14:27:07.332Z,0.8
2022-09-20T14:32:07.203Z,0.9
2022-09-20T14:37:08.077Z,0.8
2022-09-20T14:42:08.698Z,1.3
2022-09-20T14:47:09.403Z,0.7
2022-09-20T14:52:10.226Z,1.0
2022-09-20T14:57:11.796Z,0.7
2022-09-20T15:02:11.834Z,0.7
2022-09-20T15:07:12.509Z,0.7
2022-09-20T15:12:13.525Z,1.0
2022-09-20T15:17:14.010Z,0.7
2022-09-20T15:22:14.809Z,0.7
2022-09-20T15:27:15.581Z,0.7
2022-09-20T15:32:16.280Z,0.6
2022-09-20T15:37:17.106Z,1.0
2022-09-20T15:42:18.281Z,0.7
2022-09-20T15:47:18.629Z,0.8
2022-09-20T15:52:19.426Z,0.6
2022-09-20T15:57:20.320Z,0.7
2022-09-20T16:02:20.983Z,0.6
2022-09-20T16:07:21.729Z,0.6
2022-09-20T16:12:22.555Z,0.7
2022-09-20T16:17:23.341Z,0.6
2022-09-20T16:22:24.027Z,0.6
2022-09-20T16:27:24.793Z,0.7
2022-09-20T16:32:25.562Z,0.7
2022-09-20T16:37:26.331Z,0.7
2022-09-20T16:42:27.096Z,0.7
2022-09-20T16:47:27.880Z,0.5
2022-09-20T16:52:28.762Z,0.7
2022-09-20T16:57:29.367Z,0.7
2022-09-20T17:02:30.088Z,0.5
2022-09-20T17:07:31.014Z,0.9
2022-09-20T17:12:31.884Z,0.6
2022-09-20T17:16:19.111Z,0.6
2022-09-20T17:17:24.939Z,0.6
2022-09-20T17:17:32.761Z,0.7
2022-09-20T17:22:33.351Z,0.4
2022-09-20T17:27:34.193Z,0.6
2022-09-20T17:32:34.859Z,0.4
2022-09-20T17:37:35.639Z,0.7
2022-09-20T17:42:36.486Z,0.6
2022-09-20T17:47:37.205Z,0.5
2022-09-20T17:52:37.914Z,0.4
2022-09-20T17:57:38.851Z,0.5
2022-09-20T18:02:39.474Z,0.4
2022-09-20T18:07:40.125Z,0.6
2022-09-20T18:12:40.979Z,0.4
2022-09-20T18:17:41.607Z,0.3
2022-09-20T18:22:42.395Z,0.5
2022-09-20T18:27:43.316Z,0.5
2022-09-20T18:32:43.980Z,0.5
2022-09-20T18:37:44.803Z,0.4
2022-09-20T18:42:45.712Z,0.4
2022-09-20T18:47:46.529Z,0.3
2022-09-20T18:52:47.193Z,0.2
2022-09-20T18:57:48.054Z,0.3
2022-09-20T19:02:48.829Z,0.3
2022-09-20T19:07:49.844Z,0.4
2022-09-20T19:12:51.147Z,0.3
2022-09-20T19:17:51.175Z,0.3
2022-09-20T19:22:51.974Z,0.3
2022-09-20T19:27:52.771Z,0.4
2022-09-20T19:32:53.521Z,0.2
2022-09-20T19:37:54.202Z,0.4
2022-09-20T19:42:55.084Z,0.4
2022-09-20T19:47:55.766Z,0.4
2022-09-20T19:52:56.560Z,0.5
2022-09-20T19:57:57.385Z,0.3
2022-09-20T20:02:58.210Z,0.4
2022-09-20T20:07:58.935Z,0.3
2022-09-20T20:12:59.673Z,0.6
2022-09-20T20:18:00.427Z,0.3
2022-09-20T20:23:01.284Z,0.4
2022-09-20T20:28:02.140Z,0.4
2022-09-20T20:33:02.901Z,0.2
2022-09-20T20:38:03.600Z,0.2
2022-09-20T20:43:04.392Z,0.3
2022-09-20T20:48:05.063Z,0.2
2022-09-20T20:53:05.974Z,0.3
2022-09-20T20:58:06.792Z,0.2
2022-09-20T21:03:07.616Z,0.3
2022-09-20T21:08:08.270Z,0.2
2022-09-20T21:13:09.093Z,0.2
2022-09-20T21:18:09.984Z,0.3
2022-09-20T21:23:10.646Z,0.2
2022-09-20T21:28:11.481Z,0.2
2022-09-20T21:33:12.308Z,0.2
2022-09-20T21:38:12.973Z,0.3
2022-09-20T21:43:13.827Z,0.2
2022-09-20T21:48:14.661Z,0.5
2022-09-20T21:53:15.515Z,0.2
2022-09-20T21:58:16.411Z,0.2
2022-09-20T22:03:17.152Z,0.2
2022-09-20T22:08:17.919Z,0.2
2022-09-20T22:13:18.758Z,0.4
2022-09-20T22:18:19.508Z,0.2
2022-09-20T22:23:20.338Z,0.2
2022-09-20T22:28:21.115Z,0.2
2022-09-20T22:33:22.389Z,0.2
2022-09-20T22:38:22.678Z,0.2
2022-09-20T22:43:24.441Z,0.2
2022-09-20T22:48:24.455Z,0.2
2022-09-20T22:53:25.182Z,0.2
2022-09-20T22:58:26.101Z,0.3
2022-09-20T23:03:26.939Z,0.2
2022-09-20T23:08:27.740Z,0.3
2022-09-20T23:13:28.591Z,0.2
2022-09-20T23:18:29.457Z,0.1
2022-09-20T23:23:30.409Z,0.2
2022-09-20T23:28:30.982Z,0.3
2022-09-20T23:33:31.836Z,0.2
2022-09-20T23:38:32.695Z,0.2
2022-09-20T23:43:33.541Z,0.3
2022-09-20T23:48:34.331Z,0.3
2022-09-20T23:53:35.188Z,0.2
2022-09-20T23:58:35.980Z,0.2
